createdAt,value
2022-08-25T00:00:14.791Z,18.30
2022-08-25T00:02:55.035Z,18.30
2022-08-25T00:05:29.230Z,18.30
2022-08-25T00:08:00.706Z,18.20
2022-08-25T00:10:28.871Z,18.10
2022-08-25T00:12:56.492Z,18.10
2022-08-25T00:15:24.328Z,18.00
2022-08-25T00:17:52.145Z,18.00
2022-08-25T00:20:19.941Z,18.00
2022-08-25T00:22:47.609Z,17.90
2022-08-25T00:25:15.697Z,17.90
2022-08-25T00:27:43.806Z,17.90
2022-08-25T00:30:15.940Z,17.90
2022-08-25T00:32:44.557Z,17.90
2022-08-25T00:35:24.515Z,17.90
2022-08-25T00:37:52.083Z,17.90
2022-08-25T00:40:20.342Z,17.80
2022-08-25T00:42:47.995Z,17.80
2022-08-25T00:45:15.654Z,17.80
2022-08-25T00:47:43.188Z,17.80
2022-08-25T00:50:12.195Z,17.80
2022-08-25T00:52:47.981Z,17.80
2022-08-25T00:55:23.449Z,17.70
2022-08-25T00:58:14.203Z,17.70
2022-08-25T01:00:46.495Z,17.70
2022-08-25T01:03:14.506Z,17.70
2022-08-25T01:05:43.657Z,17.70
2022-08-25T01:08:11.797Z,17.60
2022-08-25T01:10:45.219Z,17.60
2022-08-25T01:13:20.234Z,17.60
2022-08-25T01:15:52.615Z,17.60
2022-08-25T01:18:20.756Z,17.50
2022-08-25T01:20:51.029Z,17.50
2022-08-25T01:23:20.138Z,17.50
2022-08-25T01:26:14.465Z,17.40
2022-08-25T01:29:04.852Z,17.40
2022-08-25T01:31:33.627Z,17.40
2022-08-25T01:34:01.274Z,17.40
2022-08-25T01:36:30.261Z,17.30
2022-08-25T01:38:58.604Z,17.30
2022-08-25T01:41:34.085Z,17.30
2022-08-25T01:44:05.678Z,17.20
2022-08-25T01:46:34.340Z,17.10
2022-08-25T01:49:06.266Z,17.10
2022-08-25T01:51:42.822Z,17.10
2022-08-25T01:54:10.511Z,17.00
2022-08-25T01:56:38.738Z,17.00
2022-08-25T01:59:06.366Z,16.90
2022-08-25T02:01:34.559Z,16.90
2022-08-25T02:04:02.292Z,16.90
2022-08-25T02:06:33.240Z,16.80
2022-08-25T02:09:07.748Z,16.80
2022-08-25T02:11:37.642Z,16.80
2022-08-25T02:14:06.230Z,16.80
2022-08-25T02:16:37.381Z,16.80
2022-08-25T02:19:11.898Z,16.80
2022-08-25T02:21:39.652Z,16.70
2022-08-25T02:24:08.161Z,16.70
2022-08-25T02:26:36.474Z,16.70
2022-08-25T02:29:05.001Z,16.70
2022-08-25T02:31:32.718Z,16.60
2022-08-25T02:34:02.060Z,16.60
2022-08-25T02:36:30.704Z,16.60
2022-08-25T02:38:59.352Z,16.60
2022-08-25T02:41:30.928Z,16.60
2022-08-25T02:44:00.766Z,16.60
2022-08-25T02:46:28.795Z,16.60
2022-08-25T02:48:56.796Z,16.60
2022-08-25T02:51:25.598Z,16.60
2022-08-25T02:53:53.588Z,16.60
2022-08-25T02:56:21.309Z,16.60
2022-08-25T02:58:48.897Z,16.60
2022-08-25T03:01:17.129Z,16.60
2022-08-25T03:03:47.116Z,16.60
2022-08-25T03:06:17.639Z,16.60
2022-08-25T03:08:45.600Z,16.60
2022-08-25T03:11:13.407Z,16.60
2022-08-25T03:13:41.210Z,16.60
2022-08-25T03:16:10.942Z,16.60
2022-08-25T03:18:41.339Z,16.60
2022-08-25T03:21:11.725Z,16.60
2022-08-25T03:23:41.004Z,16.60
2022-08-25T03:26:27.153Z,16.60
2022-08-25T03:28:57.925Z,16.60
2022-08-25T03:31:27.794Z,16.60
2022-08-25T03:33:55.811Z,16.60
2022-08-25T03:36:23.574Z,16.60
2022-08-25T03:38:52.351Z,16.50
2022-08-25T03:41:27.845Z,16.50
2022-08-25T03:43:57.316Z,16.50
2022-08-25T03:46:47.174Z,16.50
2022-08-25T03:49:18.096Z,16.50
2022-08-25T03:51:48.293Z,16.60
2022-08-25T03:54:18.724Z,16.50
2022-08-25T03:56:46.518Z,16.50
2022-08-25T03:59:14.229Z,16.50
2022-08-25T04:01:44.267Z,16.50
2022-08-25T04:04:13.358Z,16.50
2022-08-25T04:06:42.143Z,16.50
2022-08-25T04:09:10.924Z,16.40
2022-08-25T04:11:38.873Z,16.40
2022-08-25T04:14:06.411Z,16.30
2022-08-25T04:16:35.233Z,16.30
2022-08-25T04:19:06.512Z,16.30
2022-08-25T04:21:34.860Z,16.20
2022-08-25T04:24:02.493Z,16.30
2022-08-25T04:26:34.288Z,16.20
2022-08-25T04:29:04.602Z,16.20
2022-08-25T04:31:33.571Z,16.20
2022-08-25T04:34:17.344Z,16.20
2022-08-25T04:36:54.096Z,16.20
2022-08-25T04:39:21.708Z,16.20
2022-08-25T04:41:50.681Z,16.10
2022-08-25T04:44:18.323Z,16.10
2022-08-25T04:46:45.934Z,16.10
2022-08-25T04:49:13.445Z,16.10
2022-08-25T04:51:41.768Z,16.20
2022-08-25T04:54:12.749Z,16.20
2022-08-25T04:56:41.499Z,16.20
2022-08-25T04:59:15.241Z,16.20
2022-08-25T05:01:46.221Z,16.20
2022-08-25T05:04:28.456Z,16.20
2022-08-25T05:06:57.373Z,16.10
2022-08-25T05:09:25.943Z,16.10
2022-08-25T05:11:54.694Z,16.20
2022-08-25T05:14:26.289Z,16.20
2022-08-25T05:16:55.644Z,16.20
2022-08-25T05:19:24.345Z,17.10
2022-08-25T05:21:52.644Z,16.20
2022-08-25T05:24:21.044Z,16.20
2022-08-25T05:26:49.721Z,16.20
2022-08-25T05:29:17.523Z,16.20
2022-08-25T05:31:50.135Z,16.30
2022-08-25T05:34:19.555Z,16.30
2022-08-25T05:36:48.600Z,16.30
2022-08-25T05:39:16.280Z,16.30
2022-08-25T05:41:44.232Z,16.30
2022-08-25T05:44:12.880Z,16.40
2022-08-25T05:46:40.478Z,16.40
2022-08-25T05:49:08.089Z,16.40
2022-08-25T05:51:35.609Z,16.40
2022-08-25T05:54:03.921Z,16.40
2022-08-25T05:56:31.513Z,16.40
2022-08-25T05:58:59.235Z,16.40
2022-08-25T06:01:48.180Z,16.40
2022-08-25T06:04:17.929Z,16.40
2022-08-25T06:06:45.477Z,16.40
2022-08-25T06:09:13.058Z,16.40
2022-08-25T06:11:41.461Z,16.40
2022-08-25T06:14:10.204Z,16.40
2022-08-25T06:16:39.200Z,16.40
2022-08-25T06:19:08.602Z,16.40
2022-08-25T06:21:39.176Z,16.40
2022-08-25T06:24:12.076Z,16.40
2022-08-25T06:26:44.025Z,16.40
2022-08-25T06:29:14.147Z,16.40
2022-08-25T06:31:42.866Z,16.40
2022-08-25T06:34:11.222Z,16.40
2022-08-25T06:36:39.334Z,16.40
2022-08-25T06:39:07.916Z,16.40
2022-08-25T06:41:38.829Z,16.40
2022-08-25T06:44:06.384Z,16.40
2022-08-25T06:46:36.496Z,16.40
2022-08-25T06:49:06.749Z,16.50
2022-08-25T06:51:36.070Z,16.50
2022-08-25T06:54:05.557Z,16.50
2022-08-25T06:56:34.222Z,16.50
2022-08-25T06:59:03.903Z,16.50
2022-08-25T07:01:32.121Z,16.50
2022-08-25T07:04:02.366Z,16.50
2022-08-25T07:06:32.985Z,16.60
2022-08-25T07:09:00.578Z,16.60
2022-08-25T07:11:29.245Z,16.60
2022-08-25T07:13:56.885Z,16.70
2022-08-25T07:16:30.293Z,16.70
2022-08-25T07:19:00.254Z,16.70
2022-08-25T07:21:33.154Z,16.70
2022-08-25T07:24:04.279Z,16.70
2022-08-25T07:26:38.469Z,16.70
2022-08-25T07:29:13.141Z,16.70
2022-08-25T07:31:41.273Z,16.70
2022-08-25T07:34:28.443Z,16.80
2022-08-25T07:36:57.185Z,16.70
2022-08-25T07:39:25.817Z,16.70
2022-08-25T07:41:54.345Z,16.70
2022-08-25T07:44:23.429Z,16.70
2022-08-25T07:46:53.658Z,16.70
2022-08-25T07:49:23.660Z,16.70
2022-08-25T07:52:05.350Z,16.70
2022-08-25T07:54:38.908Z,16.70
2022-08-25T07:57:15.343Z,16.70
2022-08-25T07:59:51.258Z,16.70
2022-08-25T08:02:19.861Z,16.70
2022-08-25T08:04:50.230Z,16.70
2022-08-25T08:07:23.952Z,16.70
2022-08-25T08:10:42.312Z,16.70
2022-08-25T08:13:00.568Z,16.70
2022-08-25T08:15:29.699Z,16.80
2022-08-25T08:17:59.325Z,16.70
2022-08-25T08:20:28.847Z,16.70
2022-08-25T08:22:57.028Z,16.70
2022-08-25T08:25:27.230Z,16.80
2022-08-25T08:27:56.643Z,16.80
2022-08-25T08:30:26.337Z,16.80
2022-08-25T08:33:11.226Z,16.90
2022-08-25T08:35:41.300Z,16.80
2022-08-25T08:38:14.502Z,16.90
2022-08-25T08:41:21.541Z,16.90
2022-08-25T08:43:59.996Z,17.00
2022-08-25T08:46:40.897Z,17.00
2022-08-25T08:49:30.025Z,17.10
2022-08-25T08:52:02.807Z,17.10
2022-08-25T08:54:36.265Z,17.10
2022-08-25T08:57:16.524Z,17.10
2022-08-25T08:59:59.974Z,17.10
2022-08-25T09:02:51.596Z,17.10
2022-08-25T09:05:24.299Z,17.20
2022-08-25T09:07:56.863Z,18.00
2022-08-25T09:10:28.686Z,17.30
2022-08-25T09:13:16.206Z,17.30
2022-08-25T09:16:34.497Z,17.40
2022-08-25T09:19:36.834Z,17.40
2022-08-25T09:22:35.832Z,17.50
2022-08-25T09:25:08.848Z,17.50
2022-08-25T09:27:39.500Z,17.50
2022-08-25T09:30:08.146Z,17.50
2022-08-25T09:32:48.927Z,17.60
2022-08-25T09:35:29.296Z,17.60
2022-08-25T09:37:57.757Z,17.70
2022-08-25T09:40:28.718Z,17.70
2022-08-25T09:42:59.007Z,17.70
2022-08-25T09:45:38.825Z,17.70
2022-08-25T09:48:26.822Z,17.80
2022-08-25T09:51:09.506Z,17.80
2022-08-25T09:53:43.324Z,17.80
2022-08-25T09:56:12.483Z,17.70
2022-08-25T09:58:40.012Z,17.70
2022-08-25T10:01:23.322Z,17.70
2022-08-25T10:04:02.523Z,17.70
2022-08-25T10:06:50.932Z,17.60
2022-08-25T10:09:38.114Z,17.60
2022-08-25T10:12:29.153Z,17.50
2022-08-25T10:14:57.017Z,17.50
2022-08-25T10:17:31.332Z,17.60
2022-08-25T10:20:10.271Z,17.60
2022-08-25T10:22:42.357Z,17.60
2022-08-25T10:25:12.968Z,17.70
2022-08-25T10:27:52.762Z,17.70
2022-08-25T10:30:31.375Z,17.80
2022-08-25T10:33:24.644Z,17.90
2022-08-25T10:36:11.646Z,17.90
2022-08-25T10:38:49.546Z,17.80
2022-08-25T10:41:32.539Z,17.80
2022-08-25T10:44:46.538Z,17.90
2022-08-25T10:47:26.056Z,18.00
2022-08-25T10:50:05.591Z,18.10
2022-08-25T10:52:44.517Z,18.20
2022-08-25T10:55:24.042Z,18.20
2022-08-25T10:57:57.911Z,18.20
2022-08-25T11:00:31.795Z,18.30
2022-08-25T11:03:26.745Z,18.50
2022-08-25T11:06:05.749Z,18.70
2022-08-25T11:08:36.336Z,18.70
2022-08-25T11:11:32.816Z,18.80
2022-08-25T11:14:43.588Z,18.80
2022-08-25T11:17:17.966Z,18.80
2022-08-25T11:19:49.156Z,18.90
2022-08-25T11:22:25.966Z,18.90
2022-08-25T11:25:32.280Z,18.90
2022-08-25T11:28:10.472Z,19.00
2022-08-25T11:30:38.973Z,19.00
2022-08-25T11:33:11.842Z,19.20
2022-08-25T11:36:02.275Z,19.30
2022-08-25T11:39:06.493Z,19.60
2022-08-25T11:41:55.982Z,19.90
2022-08-25T11:45:04.660Z,20.30
2022-08-25T11:47:57.603Z,20.70
2022-08-25T11:50:35.123Z,21.60
2022-08-25T11:53:49.277Z,22.10
2022-08-25T11:56:35.998Z,22.20
2022-08-25T11:59:05.295Z,22.20
2022-08-25T12:01:43.241Z,22.10
2022-08-25T12:04:13.229Z,22.10
2022-08-25T12:07:05.910Z,22.20
2022-08-25T12:09:54.598Z,22.50
2022-08-25T12:12:38.813Z,22.60
2022-08-25T12:15:41.922Z,22.80
2022-08-25T12:18:12.258Z,23.10
2022-08-25T12:20:59.102Z,23.70
2022-08-25T12:23:45.185Z,24.00
2022-08-25T12:26:36.829Z,24.00
2022-08-25T12:29:13.765Z,23.90
2022-08-25T12:36:06.501Z,24.10
2022-08-25T12:38:42.671Z,23.90
2022-08-25T12:41:14.440Z,24.00
2022-08-25T12:43:54.693Z,24.70
2022-08-25T12:46:26.325Z,25.00
2022-08-25T12:49:19.860Z,25.20
2022-08-25T12:51:57.268Z,25.00
2022-08-25T12:54:40.480Z,24.80
2022-08-25T12:57:45.950Z,24.60
2022-08-25T13:03:33.006Z,24.00
2022-08-25T13:06:24.909Z,23.80
2022-08-25T13:08:58.783Z,23.50
2022-08-25T13:11:53.961Z,23.40
2022-08-25T13:14:41.722Z,24.20
2022-08-25T13:17:12.128Z,25.30
2022-08-25T13:19:39.652Z,25.60
2022-08-25T13:22:16.396Z,26.10
2022-08-25T13:24:50.489Z,26.60
2022-08-25T13:27:24.302Z,27.10
2022-08-25T13:29:55.920Z,27.80
2022-08-25T13:32:29.735Z,28.50
2022-08-25T13:35:33.112Z,28.70
2022-08-25T13:38:15.362Z,29.10
2022-08-25T13:40:44.325Z,30.00
2022-08-25T13:43:15.061Z,30.50
2022-08-25T13:45:46.745Z,30.80
2022-08-25T13:48:36.110Z,31.20
2022-08-25T13:51:31.335Z,31.20
2022-08-25T13:54:07.260Z,30.70
2022-08-25T13:56:40.943Z,30.30
2022-08-25T13:59:34.320Z,30.10
2022-08-25T14:02:19.257Z,29.80
2022-08-25T14:04:51.778Z,30.10
2022-08-25T14:07:23.224Z,30.40
2022-08-25T14:10:00.865Z,30.90
2022-08-25T14:12:42.196Z,31.50
2022-08-25T14:15:18.537Z,31.90
2022-08-25T14:17:59.574Z,32.20
2022-08-25T14:20:31.091Z,32.50
2022-08-25T14:23:04.939Z,32.40
2022-08-25T14:25:42.202Z,32.00
2022-08-25T14:28:14.773Z,31.20
2022-08-25T14:30:54.374Z,30.30
2022-08-25T14:33:24.977Z,29.20
2022-08-25T14:35:54.384Z,28.30
2022-08-25T14:38:23.447Z,27.80
2022-08-25T14:40:51.446Z,27.80
2022-08-25T14:43:20.922Z,28.00
2022-08-25T14:45:52.524Z,28.30
2022-08-25T14:48:30.785Z,28.30
2022-08-25T14:51:00.580Z,28.60
2022-08-25T14:53:28.754Z,28.60
2022-08-25T14:55:59.135Z,28.30
2022-08-25T14:58:33.957Z,28.40
2022-08-25T15:01:03.089Z,28.90
2022-08-25T15:03:43.177Z,29.50
2022-08-25T15:06:17.297Z,30.10
2022-08-25T15:09:03.784Z,30.50
2022-08-25T15:11:32.053Z,30.40
2022-08-25T15:14:03.416Z,30.10
2022-08-25T15:16:35.321Z,29.50
2022-08-25T15:19:06.605Z,29.40
2022-08-25T15:21:36.368Z,29.70
2022-08-25T15:24:05.601Z,29.70
2022-08-25T15:26:42.772Z,29.80
2022-08-25T15:29:10.551Z,30.10
2022-08-25T15:31:39.885Z,30.20
2022-08-25T15:34:11.757Z,30.00
2022-08-25T15:36:40.381Z,29.70
2022-08-25T15:39:10.662Z,29.80
2022-08-25T15:41:38.645Z,30.00
2022-08-25T15:44:07.952Z,30.10
2022-08-25T15:46:36.774Z,30.40
2022-08-25T15:49:07.986Z,30.50
2022-08-25T15:51:36.037Z,30.70
2022-08-25T15:54:04.402Z,30.90
2022-08-25T15:56:32.090Z,30.80
2022-08-25T15:58:59.611Z,30.70
2022-08-25T16:01:35.062Z,30.40
2022-08-25T16:04:02.809Z,30.20
2022-08-25T16:06:31.325Z,30.00
2022-08-25T16:08:58.994Z,29.80
2022-08-25T16:11:30.276Z,29.70
2022-08-25T16:13:58.141Z,29.70
2022-08-25T16:16:28.806Z,29.60
2022-08-25T16:18:56.397Z,29.60
2022-08-25T16:21:30.081Z,29.50
2022-08-25T16:24:01.892Z,29.10
2022-08-25T16:26:31.761Z,28.90
2022-08-25T16:28:59.319Z,28.60
2022-08-25T16:31:27.357Z,28.00
2022-08-25T16:33:58.163Z,27.50
2022-08-25T16:36:27.191Z,27.00
2022-08-25T16:38:57.431Z,26.60
2022-08-25T16:41:36.088Z,26.30
2022-08-25T16:44:07.777Z,26.10
2022-08-25T16:46:40.842Z,25.70
2022-08-25T16:49:09.870Z,25.50
2022-08-25T16:51:39.728Z,25.30
2022-08-25T16:54:28.360Z,25.20
2022-08-25T16:56:57.551Z,25.00
2022-08-25T16:59:26.024Z,24.80
2022-08-25T17:01:53.919Z,24.60
2022-08-25T17:04:21.636Z,24.40
2022-08-25T17:07:00.067Z,24.20
2022-08-25T17:09:30.105Z,24.10
2022-08-25T17:11:57.794Z,24.00
2022-08-25T17:14:25.356Z,23.90
2022-08-25T17:16:55.178Z,23.70
2022-08-25T17:19:25.072Z,23.50
2022-08-25T17:21:54.796Z,23.40
2022-08-25T17:24:29.223Z,23.20
2022-08-25T17:27:01.418Z,23.10
2022-08-25T17:29:29.814Z,23.00
2022-08-25T17:31:58.548Z,22.80
2022-08-25T17:34:28.376Z,22.40
2022-08-25T17:36:57.362Z,22.40
2022-08-25T17:39:25.796Z,22.20
2022-08-25T17:41:54.447Z,22.00
2022-08-25T17:44:22.129Z,22.00
2022-08-25T17:46:50.856Z,21.90
2022-08-25T17:49:19.564Z,21.70
2022-08-25T17:51:47.154Z,21.60
2022-08-25T17:54:15.328Z,21.50
2022-08-25T17:56:43.596Z,21.50
2022-08-25T17:59:12.129Z,21.40
2022-08-25T18:01:40.846Z,21.40
2022-08-25T18:04:17.429Z,21.30
2022-08-25T18:06:47.529Z,21.30
2022-08-25T18:09:16.580Z,21.20
2022-08-25T18:11:46.112Z,21.10
2022-08-25T18:14:16.759Z,21.00
2022-08-25T18:16:45.249Z,20.90
2022-08-25T18:19:14.447Z,20.80
2022-08-25T18:21:43.457Z,20.60
2022-08-25T18:24:11.733Z,20.50
2022-08-25T18:26:42.204Z,20.40
2022-08-25T18:29:13.079Z,20.20
2022-08-25T18:31:42.226Z,20.00
2022-08-25T18:34:11.507Z,19.90
2022-08-25T18:36:39.643Z,19.80
2022-08-25T18:39:25.897Z,19.70
2022-08-25T18:41:53.943Z,19.50
2022-08-25T18:44:21.735Z,19.40
2022-08-25T18:46:49.560Z,19.30
2022-08-25T18:49:17.653Z,19.20
2022-08-25T18:51:46.280Z,19.20
2022-08-25T18:54:22.850Z,19.20
2022-08-25T18:56:54.653Z,19.10
2022-08-25T18:59:23.408Z,19.10
2022-08-25T19:01:53.474Z,19.00
2022-08-25T19:04:28.538Z,19.00
2022-08-25T19:07:01.149Z,18.90
2022-08-25T19:09:29.391Z,18.80
2022-08-25T19:11:59.086Z,18.80
2022-08-25T19:14:26.833Z,18.60
2022-08-25T19:16:55.033Z,18.60
2022-08-25T19:19:23.870Z,18.50
2022-08-25T19:21:51.732Z,18.30
2022-08-25T19:24:19.938Z,18.20
2022-08-25T19:26:51.382Z,18.00
2022-08-25T19:29:22.942Z,17.90
2022-08-25T19:31:51.301Z,17.80
2022-08-25T19:34:28.363Z,17.70
2022-08-25T19:37:00.575Z,17.60
2022-08-25T19:39:30.606Z,17.60
2022-08-25T19:41:58.666Z,17.50
2022-08-25T19:44:28.138Z,17.40
2022-08-25T19:46:56.682Z,17.30
2022-08-25T19:49:31.799Z,17.20
2022-08-25T19:52:03.682Z,17.20
2022-08-25T19:54:44.218Z,17.00
2022-08-25T19:57:27.986Z,17.00
2022-08-25T20:00:08.101Z,16.80
2022-08-25T20:02:39.819Z,16.70
2022-08-25T20:05:08.438Z,16.60
2022-08-25T20:07:37.496Z,16.60
2022-08-25T20:10:07.645Z,16.50
2022-08-25T20:12:38.302Z,16.40
2022-08-25T20:15:07.677Z,16.30
2022-08-25T20:17:36.586Z,16.30
2022-08-25T20:20:12.923Z,16.20
2022-08-25T20:22:41.278Z,16.20
2022-08-25T20:25:13.741Z,16.10
2022-08-25T20:27:45.764Z,16.10
2022-08-25T20:30:18.801Z,16.00
2022-08-25T20:32:46.925Z,16.00
2022-08-25T20:35:16.490Z,15.90
2022-08-25T20:37:45.900Z,15.90
2022-08-25T20:40:16.770Z,15.80
2022-08-25T20:42:45.354Z,15.80
2022-08-25T20:45:16.243Z,15.80
2022-08-25T20:47:44.616Z,15.70
2022-08-25T20:50:12.370Z,15.70
2022-08-25T20:52:42.558Z,15.60
2022-08-25T20:55:12.349Z,15.50
2022-08-25T20:57:40.414Z,15.40
2022-08-25T21:00:10.058Z,15.40
2022-08-25T21:02:37.817Z,15.30
2022-08-25T21:05:06.182Z,15.30
2022-08-25T21:07:35.795Z,15.30
2022-08-25T21:10:14.123Z,15.20
2022-08-25T21:12:43.230Z,15.20
2022-08-25T21:15:13.504Z,15.10
2022-08-25T21:17:50.633Z,15.00
2022-08-25T21:20:18.448Z,14.80
2022-08-25T21:22:46.121Z,14.80
2022-08-25T21:25:14.432Z,14.70
2022-08-25T21:27:42.025Z,14.60
2022-08-25T21:30:12.890Z,14.50
2022-08-25T21:32:40.482Z,14.50
2022-08-25T21:35:23.085Z,14.40
2022-08-25T21:37:53.210Z,14.30
2022-08-25T21:40:23.171Z,14.20
2022-08-25T21:42:52.153Z,14.10
2022-08-25T21:45:21.722Z,14.10
2022-08-25T21:47:49.764Z,13.90
2022-08-25T21:50:19.832Z,13.90
2022-08-25T21:52:47.375Z,13.80
2022-08-25T21:55:22.271Z,13.80
2022-08-25T21:57:50.332Z,13.70
2022-08-25T22:00:19.196Z,13.70
2022-08-25T22:02:49.502Z,13.60
2022-08-25T22:05:17.275Z,13.60
2022-08-25T22:07:45.100Z,13.60
2022-08-25T22:10:16.686Z,13.60
2022-08-25T22:12:47.632Z,13.50
2022-08-25T22:15:16.485Z,13.50
2022-08-25T22:17:48.111Z,13.40
2022-08-25T22:20:18.026Z,13.40
2022-08-25T22:22:46.139Z,13.30
2022-08-25T22:25:13.847Z,13.30
2022-08-25T22:27:42.272Z,13.30
2022-08-25T22:30:10.892Z,13.20
2022-08-25T22:32:38.577Z,13.10
2022-08-25T22:35:06.973Z,13.10
2022-08-25T22:37:35.606Z,13.00
2022-08-25T22:40:03.619Z,13.00
2022-08-25T22:42:31.497Z,12.90
2022-08-25T22:44:59.102Z,12.80
2022-08-25T22:47:27.428Z,12.80
2022-08-25T22:49:55.696Z,12.70
2022-08-25T22:52:26.115Z,12.70
2022-08-25T22:55:02.964Z,12.60
2022-08-25T22:57:30.806Z,12.50
2022-08-25T22:59:59.302Z,12.40
2022-08-25T23:02:27.649Z,12.40
2022-08-25T23:04:58.076Z,12.30
2022-08-25T23:07:29.081Z,12.20
2022-08-25T23:09:59.718Z,12.20
2022-08-25T23:12:27.394Z,12.10
2022-08-25T23:14:55.613Z,12.10
2022-08-25T23:17:23.411Z,12.00
2022-08-25T23:19:51.042Z,12.00
2022-08-25T23:22:19.401Z,12.00
2022-08-25T23:24:49.333Z,12.00
2022-08-25T23:27:19.631Z,11.90
2022-08-25T23:29:49.758Z,11.90
2022-08-25T23:32:18.552Z,11.90
2022-08-25T23:34:47.088Z,12.00
2022-08-25T23:37:16.132Z,11.90
2022-08-25T23:39:47.408Z,11.90
2022-08-25T23:42:19.281Z,11.90
2022-08-25T23:44:47.821Z,11.80
2022-08-25T23:47:16.282Z,11.80
2022-08-25T23:49:44.454Z,11.80
2022-08-25T23:52:12.235Z,11.80
2022-08-25T23:54:39.816Z,11.80
2022-08-25T23:57:07.376Z,11.80
2022-08-25T23:59:38.259Z,11.70
